Ayr Dpi Research Station, Queensland

9:28 AM AEST on October 23, 2014 (GMT +1000)
On The Edge of The sugar cane in Ayr, Qld | Change Station
CLOSE
Current Station
Personal Weather Station
Location: Ayr, QLD
Elevation: 39 ft
Nearby Weather Stations

Elev 39 ft 19.58 °S, 147.42 °E | Updated 2 seconds ago

Partly Cloudy
Partly Cloudy
80.6 °F
Feels Like 82 °F
N
9.0
Wind Variable Wind from SE
Gusts 15.0 mph

Today
High -- | Low -- °F
--% Chance of Precip.
Yesterday
High -- | Low -- °F
Precip. -- in
5:35 AM 6:14 PM
Waning Crescent, 1% visible
Pressure 30.09 in
Visibility 6.2 miles
Clouds Few 3000 ft
Heat Index 82 °F
Dew Point 61 °F
Humidity 52%
Rainfall 0.00 in
Snow Depth Not available.
UV 6 out of 12
Pollen Not available.
Air Quality Not available.
Flu Activity Not available.
METAR YBTL 222300Z 13009KT 9999 FEW030 26/15 Q1019 NOSIG

More Conditions Fewer Conditions

Pressure 30.09 in
Visibility 6.2 miles
Clouds Few 3000 ft
Heat Index 82 °F
Dew Point 61 °F
Humidity 52%
Rainfall 0.00 in
Snow Depth Not available.
UV 6 out of 12
Pollen Not available.
Air Quality Not available.
Flu Activity Not available.
METAR YBTL 222300Z 13009KT 9999 FEW030 26/15 Q1019 NOSIG

More Conditions Fewer Conditions

10-Day Weather Forecast

Almanac

Astronomy

Oct. 23, 2014 Rise Set
Actual Time 5:35 AM AEST 6:14 PM AEST
Civil Twilight 5:12 AM AEST 6:37 PM AEST
Nautical Twilight 4:46 AM AEST 7:03 PM AEST
Astronomical Twilight 4:19 AM AEST 7:30 PM AEST
Moon 4:56 AM AEST (10/23) 5:41 PM AEST (10/23)
Length of Visible Light 13h 24m
Length of Day
12h 39m
Tomorrow will be 1m 3s longer.
Waning Crescent, 1% of the Moon is Illuminated
Oct 22
Waning Crescent
Oct 23
New
Oct 30
First Quarter
Nov 6
Full
Nov 14
Last Quarter

Yesterday's Extremes

Country Highs Country Lows

Community

WunderPhotos

Upload Photos

1,764,078 photos uploaded!

WunderBlogs® & News

Nearby

Snow Depth

Not available.

Earthquake Activity

City Distance Mag. Time & Date
No recent earthquake activity has been reported nearby.
Minimum magnitude displayed is 2.5.

Coastal Water Temperatures

Place Temperature
No Stations Reporting

Nearby Weather Stations